sensor_id;sensor_type;location;lat;lon;timestamp;pressure;altitude;pressure_sealevel;temperature;humidity
9969;BME280;5025;48.890;9.278;2023-03-24T00:01:17;97915.38;;;14.72;58.71
9969;BME280;5025;48.890;9.278;2023-03-24T00:03:43;97918.66;;;14.64;58.98
9969;BME280;5025;48.890;9.278;2023-03-24T00:06:10;97912.69;;;14.62;59.05
9969;BME280;5025;48.890;9.278;2023-03-24T00:08:38;97895.84;;;14.60;58.99
9969;BME280;5025;48.890;9.278;2023-03-24T00:11:08;97894.75;;;14.61;59.15
9969;BME280;5025;48.890;9.278;2023-03-24T00:13:34;97880.63;;;14.59;59.06
9969;BME280;5025;48.890;9.278;2023-03-24T00:16:06;97877.91;;;14.59;58.89
9969;BME280;5025;48.890;9.278;2023-03-24T00:18:33;97888.25;;;14.62;58.67
9969;BME280;5025;48.890;9.278;2023-03-24T00:20:59;97882.53;;;14.63;58.64
9969;BME280;5025;48.890;9.278;2023-03-24T00:23:26;97880.63;;;14.64;58.71
9969;BME280;5025;48.890;9.278;2023-03-24T00:26:08;97882.81;;;14.62;58.58
9969;BME280;5025;48.890;9.278;2023-03-24T00:28:35;97883.09;;;14.60;58.76
9969;BME280;5025;48.890;9.278;2023-03-24T00:31:02;97883.34;;;14.59;58.86
9969;BME280;5025;48.890;9.278;2023-03-24T00:33:29;97873.56;;;14.52;59.12
9969;BME280;5025;48.890;9.278;2023-03-24T00:35:59;97866.25;;;14.48;59.41
9969;BME280;5025;48.890;9.278;2023-03-24T00:38:25;97858.41;;;14.41;59.92
9969;BME280;5025;48.890;9.278;2023-03-24T00:40:51;97850.00;;;14.38;60.19
9969;BME280;5025;48.890;9.278;2023-03-24T00:43:17;97850.00;;;14.32;60.36
9969;BME280;5025;48.890;9.278;2023-03-24T00:45:43;97835.34;;;14.33;60.50
9969;BME280;5025;48.890;9.278;2023-03-24T00:48:13;97841.59;;;14.39;60.30
9969;BME280;5025;48.890;9.278;2023-03-24T00:50:38;97829.88;;;14.39;60.33
9969;BME280;5025;48.890;9.278;2023-03-24T00:53:05;97831.28;;;14.36;60.21
9969;BME280;5025;48.890;9.278;2023-03-24T00:55:31;97838.31;;;14.37;60.61
9969;BME280;5025;48.890;9.278;2023-03-24T00:57:58;97826.94;;;14.30;60.62
9969;BME280;5025;48.890;9.278;2023-03-24T01:00:25;97819.88;;;14.29;60.78
9969;BME280;5025;48.890;9.278;2023-03-24T01:02:54;97825.03;;;14.30;60.85
9969;BME280;5025;48.890;9.278;2023-03-24T01:05:27;97827.75;;;14.30;60.93
9969;BME280;5025;48.890;9.278;2023-03-24T01:07:58;97812.25;;;14.31;60.88
9969;BME280;5025;48.890;9.278;2023-03-24T01:10:28;97811.19;;;14.32;60.83
9969;BME280;5025;48.890;9.278;2023-03-24T01:12:55;97807.38;;;14.33;60.80
9969;BME280;5025;48.890;9.278;2023-03-24T01:15:24;97799.75;;;14.35;60.76
9969;BME280;5025;48.890;9.278;2023-03-24T01:17:50;97802.72;;;14.39;60.42
9969;BME280;5025;48.890;9.278;2023-03-24T01:20:17;97776.91;;;14.41;60.30
9969;BME280;5025;48.890;9.278;2023-03-24T01:22:42;97783.72;;;14.44;60.09
9969;BME280;5025;48.890;9.278;2023-03-24T01:25:14;97776.88;;;14.46;60.19
9969;BME280;5025;48.890;9.278;2023-03-24T01:27:42;97778.78;;;14.46;60.11
9969;BME280;5025;48.890;9.278;2023-03-24T01:30:07;97774.16;;;14.46;60.00
9969;BME280;5025;48.890;9.278;2023-03-24T01:32:33;97769.28;;;14.48;59.50
9969;BME280;5025;48.890;9.278;2023-03-24T01:34:59;97762.22;;;14.47;59.32
9969;BME280;5025;48.890;9.278;2023-03-24T01:37:24;97760.59;;;14.46;59.41
9969;BME280;5025;48.890;9.278;2023-03-24T01:39:50;97766.56;;;14.48;59.25
9969;BME280;5025;48.890;9.278;2023-03-24T01:42:18;97755.41;;;14.50;58.97
9969;BME280;5025;48.890;9.278;2023-03-24T01:44:46;97766.25;;;14.50;58.78
9969;BME280;5025;48.890;9.278;2023-03-24T01:47:12;97752.16;;;14.48;58.93
9969;BME280;5025;48.890;9.278;2023-03-24T01:49:42;97758.66;;;14.52;58.44
9969;BME280;5025;48.890;9.278;2023-03-24T01:52:14;97741.25;;;14.53;58.35
9969;BME280;5025;48.890;9.278;2023-03-24T01:54:45;97744.25;;;14.51;58.49
9969;BME280;5025;48.890;9.278;2023-03-24T01:57:33;97736.66;;;14.53;58.53
9969;BME280;5025;48.890;9.278;2023-03-24T02:00:07;97744.81;;;14.53;58.29
9969;BME280;5025;48.890;9.278;2023-03-24T02:02:34;97754.03;;;14.52;58.52
9969;BME280;5025;48.890;9.278;2023-03-24T02:05:04;97751.06;;;14.49;58.63
9969;BME280;5025;48.890;9.278;2023-03-24T02:07:55;97747.00;;;14.46;58.69
9969;BME280;5025;48.890;9.278;2023-03-24T02:10:23;97750.84;;;14.45;58.91
9969;BME280;5025;48.890;9.278;2023-03-24T02:12:49;97743.47;;;14.46;58.78
9969;BME280;5025;48.890;9.278;2023-03-24T02:15:16;97740.25;;;14.44;58.94
9969;BME280;5025;48.890;9.278;2023-03-24T02:20:44;97741.56;;;14.46;58.84
9969;BME280;5025;48.890;9.278;2023-03-24T02:31:17;97737.53;;;14.39;58.67
9969;BME280;5025;48.890;9.278;2023-03-24T02:34:18;97732.97;;;14.29;58.93
9969;BME280;5025;48.890;9.278;2023-03-24T02:42:14;97730.84;;;14.21;59.15
9969;BME280;5025;48.890;9.278;2023-03-24T02:50:30;97724.94;;;14.08;59.58
9969;BME280;5025;48.890;9.278;2023-03-24T02:53:07;97725.19;;;14.07;59.62
9969;BME280;5025;48.890;9.278;2023-03-24T02:58:07;97717.34;;;14.05;59.65
9969;BME280;5025;48.890;9.278;2023-03-24T03:00:44;97711.63;;;14.02;59.81
9969;BME280;5025;48.890;9.278;2023-03-24T03:03:26;97714.34;;;14.02;59.82
9969;BME280;5025;48.890;9.278;2023-03-24T03:06:05;97708.38;;;13.99;59.68
9969;BME280;5025;48.890;9.278;2023-03-24T03:08:33;97705.94;;;13.98;59.82
9969;BME280;5025;48.890;9.278;2023-03-24T03:11:04;97707.03;;;14.02;59.47
9969;BME280;5025;48.890;9.278;2023-03-24T03:13:43;97705.66;;;14.05;59.34
9969;BME280;5025;48.890;9.278;2023-03-24T03:16:16;97700.50;;;14.08;59.04
9969;BME280;5025;48.890;9.278;2023-03-24T03:18:53;97701.81;;;14.16;58.97
9969;BME280;5025;48.890;9.278;2023-03-24T03:21:24;97708.56;;;14.24;58.43
9969;BME280;5025;48.890;9.278;2023-03-24T03:23:54;97696.03;;;14.28;58.38
9969;BME280;5025;48.890;9.278;2023-03-24T03:26:23;97707.44;;;14.30;58.02
9969;BME280;5025;48.890;9.278;2023-03-24T03:28:55;97706.06;;;14.38;57.89
9969;BME280;5025;48.890;9.278;2023-03-24T03:31:47;97698.16;;;14.41;57.71
9969;BME280;5025;48.890;9.278;2023-03-24T03:34:33;97683.72;;;14.46;57.63
9969;BME280;5025;48.890;9.278;2023-03-24T03:37:25;97683.16;;;14.49;57.63
9969;BME280;5025;48.890;9.278;2023-03-24T03:39:56;97685.84;;;14.54;57.27
9969;BME280;5025;48.890;9.278;2023-03-24T03:42:23;97688.78;;;14.58;57.11
9969;BME280;5025;48.890;9.278;2023-03-24T03:44:48;97693.13;;;14.59;56.94
9969;BME280;5025;48.890;9.278;2023-03-24T03:47:14;97690.69;;;14.62;56.74
9969;BME280;5025;48.890;9.278;2023-03-24T03:49:40;97695.28;;;14.67;56.55
9969;BME280;5025;48.890;9.278;2023-03-24T03:52:06;97696.63;;;14.69;56.24
9969;BME280;5025;48.890;9.278;2023-03-24T03:54:32;97695.56;;;14.70;56.13
9969;BME280;5025;48.890;9.278;2023-03-24T03:56:59;97696.88;;;14.73;56.07
9969;BME280;5025;48.890;9.278;2023-03-24T03:59:32;97699.59;;;14.73;55.78
9969;BME280;5025;48.890;9.278;2023-03-24T04:08:17;97696.34;;;14.71;55.93
9969;BME280;5025;48.890;9.278;2023-03-24T04:10:44;97698.56;;;14.69;55.92
9969;BME280;5025;48.890;9.278;2023-03-24T04:13:38;97703.97;;;14.69;55.87
9969;BME280;5025;48.890;9.278;2023-03-24T04:16:30;97701.00;;;14.65;56.05
9969;BME280;5025;48.890;9.278;2023-03-24T04:24:35;97698.84;;;14.67;55.96
9969;BME280;5025;48.890;9.278;2023-03-24T04:27:13;97702.88;;;14.70;55.80
9969;BME280;5025;48.890;9.278;2023-03-24T04:30:11;97703.41;;;14.72;55.77
9969;BME280;5025;48.890;9.278;2023-03-24T04:32:46;97689.25;;;14.75;55.73
9969;BME280;5025;48.890;9.278;2023-03-24T04:35:22;97683.78;;;14.80;55.13
9969;BME280;5025;48.890;9.278;2023-03-24T04:37:51;97683.78;;;14.80;54.97
9969;BME280;5025;48.890;9.278;2023-03-24T04:40:17;97672.63;;;14.82;54.57
9969;BME280;5025;48.890;9.278;2023-03-24T04:42:50;97674.50;;;14.86;54.61
9969;BME280;5025;48.890;9.278;2023-03-24T04:45:17;97675.00;;;14.88;54.34
9969;BME280;5025;48.890;9.278;2023-03-24T04:47:49;97672.00;;;14.90;54.13
9969;BME280;5025;48.890;9.278;2023-03-24T04:50:37;97688.88;;;14.92;54.20
9969;BME280;5025;48.890;9.278;2023-03-24T04:53:06;97684.22;;;14.93;54.16
9969;BME280;5025;48.890;9.278;2023-03-24T04:58:09;97682.59;;;14.92;54.21
9969;BME280;5025;48.890;9.278;2023-03-24T05:00:35;97686.72;;;14.89;53.99
9969;BME280;5025;48.890;9.278;2023-03-24T05:03:01;97686.44;;;14.91;54.26
9969;BME280;5025;48.890;9.278;2023-03-24T05:05:27;97690.25;;;14.90;53.93
9969;BME280;5025;48.890;9.278;2023-03-24T05:07:52;97712.03;;;14.84;53.99
9969;BME280;5025;48.890;9.278;2023-03-24T05:10:18;97715.84;;;14.83;54.10
9969;BME280;5025;48.890;9.278;2023-03-24T05:12:44;97730.50;;;14.82;54.60
9969;BME280;5025;48.890;9.278;2023-03-24T05:15:10;97728.63;;;14.78;54.65
9969;BME280;5025;48.890;9.278;2023-03-24T05:17:35;97748.22;;;14.80;54.76
9969;BME280;5025;48.890;9.278;2023-03-24T05:20:00;97751.50;;;14.77;54.90
9969;BME280;5025;48.890;9.278;2023-03-24T05:22:26;97779.19;;;14.79;55.06
9969;BME280;5025;48.890;9.278;2023-03-24T05:24:51;97790.94;;;14.69;55.71
9969;BME280;5025;48.890;9.278;2023-03-24T05:27:16;97797.50;;;14.52;57.36
9969;BME280;5025;48.890;9.278;2023-03-24T05:29:42;97812.75;;;14.48;59.52
9969;BME280;5025;48.890;9.278;2023-03-24T05:32:07;97837.19;;;14.48;60.88
9969;BME280;5025;48.890;9.278;2023-03-24T05:34:32;97838.09;;;14.28;62.15
9969;BME280;5025;48.890;9.278;2023-03-24T05:36:57;97840.31;;;14.01;62.42
9969;BME280;5025;48.890;9.278;2023-03-24T05:39:23;97843.88;;;13.80;64.22
9969;BME280;5025;48.890;9.278;2023-03-24T05:41:48;97832.47;;;13.73;64.82
9969;BME280;5025;48.890;9.278;2023-03-24T05:44:13;97840.88;;;13.72;65.43
9969;BME280;5025;48.890;9.278;2023-03-24T05:46:39;97834.09;;;13.64;66.07
9969;BME280;5025;48.890;9.278;2023-03-24T05:49:06;97836.28;;;13.62;66.44
9969;BME280;5025;48.890;9.278;2023-03-24T05:51:31;97840.88;;;13.61;66.90
9969;BME280;5025;48.890;9.278;2023-03-24T05:53:57;97851.19;;;13.59;67.20
9969;BME280;5025;48.890;9.278;2023-03-24T05:56:22;97847.38;;;13.55;67.85
9969;BME280;5025;48.890;9.278;2023-03-24T05:58:47;97851.19;;;13.44;68.52
9969;BME280;5025;48.890;9.278;2023-03-24T06:01:13;97857.44;;;13.39;69.39
9969;BME280;5025;48.890;9.278;2023-03-24T06:03:42;97858.50;;;13.38;69.74
9969;BME280;5025;48.890;9.278;2023-03-24T06:06:08;97858.22;;;13.40;69.97
9969;BME280;5025;48.890;9.278;2023-03-24T06:08:34;97866.91;;;13.52;69.29
9969;BME280;5025;48.890;9.278;2023-03-24T06:11:01;97858.25;;;13.60;68.78
9969;BME280;5025;48.890;9.278;2023-03-24T06:13:27;97854.19;;;13.68;68.30
9969;BME280;5025;48.890;9.278;2023-03-24T06:15:53;97850.94;;;13.71;68.03
9969;BME280;5025;48.890;9.278;2023-03-24T06:18:19;97854.44;;;13.77;67.73
9969;BME280;5025;48.890;9.278;2023-03-24T06:20:45;97848.19;;;13.81;67.66
9969;BME280;5025;48.890;9.278;2023-03-24T06:23:17;97854.72;;;13.86;67.64
9969;BME280;5025;48.890;9.278;2023-03-24T06:25:42;97851.44;;;13.89;67.48
9969;BME280;5025;48.890;9.278;2023-03-24T06:28:11;97843.03;;;13.90;67.47
9969;BME280;5025;48.890;9.278;2023-03-24T06:30:38;97834.91;;;13.90;67.42
9969;BME280;5025;48.890;9.278;2023-03-24T06:33:04;97830.84;;;13.93;67.56
9969;BME280;5025;48.890;9.278;2023-03-24T06:35:30;97832.72;;;13.92;67.62
9969;BME280;5025;48.890;9.278;2023-03-24T06:37:55;97833.53;;;13.93;67.69
9969;BME280;5025;48.890;9.278;2023-03-24T06:40:20;97822.69;;;13.93;67.43
9969;BME280;5025;48.890;9.278;2023-03-24T06:42:46;97824.84;;;13.96;67.60
9969;BME280;5025;48.890;9.278;2023-03-24T06:45:12;97826.22;;;13.93;67.52
9969;BME280;5025;48.890;9.278;2023-03-24T06:47:37;97831.91;;;13.92;67.93
9969;BME280;5025;48.890;9.278;2023-03-24T06:50:03;97840.59;;;13.94;67.75
9969;BME280;5025;48.890;9.278;2023-03-24T06:52:29;97849.28;;;13.96;67.88
9969;BME280;5025;48.890;9.278;2023-03-24T06:54:54;97851.72;;;13.97;68.30
9969;BME280;5025;48.890;9.278;2023-03-24T06:57:21;97850.88;;;13.97;67.99
9969;BME280;5025;48.890;9.278;2023-03-24T06:59:46;97860.41;;;13.99;68.06
9969;BME280;5025;48.890;9.278;2023-03-24T07:02:13;97849.81;;;13.98;67.88
9969;BME280;5025;48.890;9.278;2023-03-24T07:04:38;97850.34;;;14.00;68.04
9969;BME280;5025;48.890;9.278;2023-03-24T07:07:03;97857.69;;;13.99;67.86
9969;BME280;5025;48.890;9.278;2023-03-24T07:09:29;97859.59;;;13.99;68.10
9969;BME280;5025;48.890;9.278;2023-03-24T07:11:54;97862.59;;;13.97;68.08
9969;BME280;5025;48.890;9.278;2023-03-24T07:14:20;97858.22;;;13.96;68.46
9969;BME280;5025;48.890;9.278;2023-03-24T07:16:46;97862.84;;;13.96;68.51
9969;BME280;5025;48.890;9.278;2023-03-24T07:19:11;97853.88;;;13.95;68.85
9969;BME280;5025;48.890;9.278;2023-03-24T07:21:36;97865.00;;;13.94;69.04
9969;BME280;5025;48.890;9.278;2023-03-24T07:24:02;97866.66;;;13.95;69.54
9969;BME280;5025;48.890;9.278;2023-03-24T07:26:27;97869.91;;;13.92;69.54
9969;BME280;5025;48.890;9.278;2023-03-24T07:28:52;97869.34;;;13.85;70.42
9969;BME280;5025;48.890;9.278;2023-03-24T07:31:17;97874.28;;;13.77;71.25
9969;BME280;5025;48.890;9.278;2023-03-24T07:33:43;97876.69;;;13.74;71.64
9969;BME280;5025;48.890;9.278;2023-03-24T07:36:08;97894.88;;;13.68;72.38
9969;BME280;5025;48.890;9.278;2023-03-24T07:38:33;97883.47;;;13.66;72.69
9969;BME280;5025;48.890;9.278;2023-03-24T07:40:59;97903.03;;;13.68;73.05
9969;BME280;5025;48.890;9.278;2023-03-24T07:43:24;97897.56;;;13.63;73.95
9969;BME280;5025;48.890;9.278;2023-03-24T07:45:50;97896.78;;;13.57;74.30
9969;BME280;5025;48.890;9.278;2023-03-24T07:48:16;97914.41;;;13.55;74.63
9969;BME280;5025;48.890;9.278;2023-03-24T07:50:41;97908.97;;;13.50;75.18
9969;BME280;5025;48.890;9.278;2023-03-24T07:53:06;97913.03;;;13.47;75.50
9969;BME280;5025;48.890;9.278;2023-03-24T07:55:37;97913.03;;;13.47;76.18
9969;BME280;5025;48.890;9.278;2023-03-24T07:58:03;97911.41;;;13.46;76.65
9969;BME280;5025;48.890;9.278;2023-03-24T08:00:28;97912.50;;;13.45;77.30
9969;BME280;5025;48.890;9.278;2023-03-24T08:02:54;97911.66;;;13.44;77.58
9969;BME280;5025;48.890;9.278;2023-03-24T08:05:21;97911.13;;;13.42;77.81
9969;BME280;5025;48.890;9.278;2023-03-24T08:07:49;97905.69;;;13.42;78.79
9969;BME280;5025;48.890;9.278;2023-03-24T08:10:18;97906.53;;;13.48;78.80
9969;BME280;5025;48.890;9.278;2023-03-24T08:12:45;97920.38;;;13.47;79.19
9969;BME280;5025;48.890;9.278;2023-03-24T08:15:10;97911.94;;;13.43;79.77
9969;BME280;5025;48.890;9.278;2023-03-24T08:17:37;97914.38;;;13.44;79.77
9969;BME280;5025;48.890;9.278;2023-03-24T08:20:03;97916.28;;;13.44;79.91
9969;BME280;5025;48.890;9.278;2023-03-24T08:22:32;97919.25;;;13.37;80.46
9969;BME280;5025;48.890;9.278;2023-03-24T08:24:57;97915.44;;;13.33;80.70
9969;BME280;5025;48.890;9.278;2023-03-24T08:27:22;97902.44;;;13.35;81.22
9969;BME280;5025;48.890;9.278;2023-03-24T08:29:48;97878.84;;;13.36;81.73
9969;BME280;5025;48.890;9.278;2023-03-24T08:32:15;97858.50;;;13.38;81.74
9969;BME280;5025;48.890;9.278;2023-03-24T08:34:40;97847.69;;;13.43;82.91
9969;BME280;5025;48.890;9.278;2023-03-24T08:37:06;97853.63;;;13.45;83.32
9969;BME280;5025;48.890;9.278;2023-03-24T08:39:31;97808.06;;;13.42;83.73
9969;BME280;5025;48.890;9.278;2023-03-24T08:42:00;97783.66;;;13.42;84.03
9969;BME280;5025;48.890;9.278;2023-03-24T08:44:25;97748.94;;;13.39;84.62
9969;BME280;5025;48.890;9.278;2023-03-24T08:46:50;97816.47;;;13.41;84.83
9969;BME280;5025;48.890;9.278;2023-03-24T08:49:16;97825.97;;;13.43;84.85
9969;BME280;5025;48.890;9.278;2023-03-24T08:51:42;97837.91;;;13.42;84.84
9969;BME280;5025;48.890;9.278;2023-03-24T08:54:07;97846.84;;;13.43;84.90
9969;BME280;5025;48.890;9.278;2023-03-24T08:56:33;97860.13;;;13.44;84.98
9969;BME280;5025;48.890;9.278;2023-03-24T08:58:58;97866.38;;;13.45;84.85
9969;BME280;5025;48.890;9.278;2023-03-24T09:01:24;97865.03;;;13.48;84.91
9969;BME280;5025;48.890;9.278;2023-03-24T09:03:50;97875.06;;;13.52;85.01
9969;BME280;5025;48.890;9.278;2023-03-24T09:06:16;97889.47;;;13.53;84.85
9969;BME280;5025;48.890;9.278;2023-03-24T09:08:41;97882.38;;;13.57;85.04
9969;BME280;5025;48.890;9.278;2023-03-24T09:11:13;97885.09;;;13.57;84.75
9969;BME280;5025;48.890;9.278;2023-03-24T09:13:39;97883.22;;;13.62;84.68
9969;BME280;5025;48.890;9.278;2023-03-24T09:16:05;97878.84;;;13.61;84.74
9969;BME280;5025;48.890;9.278;2023-03-24T09:18:30;97879.97;;;13.60;84.98
9969;BME280;5025;48.890;9.278;2023-03-24T09:20:56;97881.59;;;13.67;84.63
9969;BME280;5025;48.890;9.278;2023-03-24T09:23:22;97890.81;;;13.71;84.16
9969;BME280;5025;48.890;9.278;2023-03-24T09:25:51;97883.22;;;13.73;84.06
9969;BME280;5025;48.890;9.278;2023-03-24T09:28:18;97890.25;;;13.74;83.91
9969;BME280;5025;48.890;9.278;2023-03-24T09:30:43;97891.09;;;13.74;83.92
9969;BME280;5025;48.890;9.278;2023-03-24T09:33:08;97881.31;;;13.73;83.74
9969;BME280;5025;48.890;9.278;2023-03-24T09:35:34;97875.88;;;13.73;83.73
9969;BME280;5025;48.890;9.278;2023-03-24T09:37:59;97881.59;;;13.72;83.79
9969;BME280;5025;48.890;9.278;2023-03-24T09:40:30;97901.94;;;13.69;83.83
9969;BME280;5025;48.890;9.278;2023-03-24T09:45:36;97863.69;;;13.76;83.25
9969;BME280;5025;48.890;9.278;2023-03-24T09:49:07;97882.94;;;13.79;82.92
9969;BME280;5025;48.890;9.278;2023-03-24T09:51:23;97875.06;;;13.88;82.16
9969;BME280;5025;48.890;9.278;2023-03-24T09:54:08;97879.97;;;13.91;82.24
9969;BME280;5025;48.890;9.278;2023-03-24T09:56:38;97887.00;;;13.97;82.08
9969;BME280;5025;48.890;9.278;2023-03-24T10:01:37;97875.03;;;14.09;81.18
9969;BME280;5025;48.890;9.278;2023-03-24T10:04:03;97888.31;;;14.15;80.43
9969;BME280;5025;48.890;9.278;2023-03-24T10:06:39;97898.63;;;14.19;80.11
9969;BME280;5025;48.890;9.278;2023-03-24T10:09:14;97854.94;;;14.25;79.17
9969;BME280;5025;48.890;9.278;2023-03-24T10:12:12;97877.41;;;14.41;78.59
9969;BME280;5025;48.890;9.278;2023-03-24T10:22:58;97875.69;;;14.76;76.42
9969;BME280;5025;48.890;9.278;2023-03-24T10:25:42;97874.91;;;14.70;75.44
9969;BME280;5025;48.890;9.278;2023-03-24T10:28:23;97873.78;;;14.72;75.07
9969;BME280;5025;48.890;9.278;2023-03-24T10:30:53;97875.94;;;14.75;74.81
9969;BME280;5025;48.890;9.278;2023-03-24T10:33:19;97869.72;;;14.74;74.66
9969;BME280;5025;48.890;9.278;2023-03-24T10:35:50;97877.88;;;14.74;74.15
9969;BME280;5025;48.890;9.278;2023-03-24T10:38:20;97879.75;;;14.79;74.04
9969;BME280;5025;48.890;9.278;2023-03-24T10:40:47;97878.94;;;14.78;73.12
9969;BME280;5025;48.890;9.278;2023-03-24T10:43:15;97880.56;;;14.84;72.86
9969;BME280;5025;48.890;9.278;2023-03-24T10:45:45;97873.19;;;14.85;72.53
9969;BME280;5025;48.890;9.278;2023-03-24T10:48:13;97890.63;;;14.79;71.69
9969;BME280;5025;48.890;9.278;2023-03-24T10:50:43;97886.00;;;14.79;70.61
9969;BME280;5025;48.890;9.278;2023-03-24T10:53:17;97886.00;;;14.84;68.85
9969;BME280;5025;48.890;9.278;2023-03-24T10:55:43;97903.34;;;14.94;67.47
9969;BME280;5025;48.890;9.278;2023-03-24T10:58:26;97913.09;;;14.95;67.13
9969;BME280;5025;48.890;9.278;2023-03-24T11:00:53;97911.44;;;15.04;66.42
9969;BME280;5025;48.890;9.278;2023-03-24T11:03:27;97945.19;;;14.98;65.04
9969;BME280;5025;48.890;9.278;2023-03-24T11:05:58;97902.75;;;15.02;65.39
9969;BME280;5025;48.890;9.278;2023-03-24T11:10:53;97910.84;;;15.17;64.59
9969;BME280;5025;48.890;9.278;2023-03-24T11:15:56;97926.34;;;15.17;62.73
9969;BME280;5025;48.890;9.278;2023-03-24T11:18:28;97892.59;;;15.18;62.99
9969;BME280;5025;48.890;9.278;2023-03-24T11:21:01;97884.66;;;15.27;63.65
9969;BME280;5025;48.890;9.278;2023-03-24T11:23:37;97892.56;;;15.28;62.69
9969;BME280;5025;48.890;9.278;2023-03-24T11:26:14;97886.78;;;15.35;62.34
9969;BME280;5025;48.890;9.278;2023-03-24T11:28:55;97911.84;;;15.32;63.41
9969;BME280;5025;48.890;9.278;2023-03-24T11:31:24;97907.69;;;15.39;63.82
9969;BME280;5025;48.890;9.278;2023-03-24T11:36:57;97930.78;;;15.52;62.42
9969;BME280;5025;48.890;9.278;2023-03-24T11:39:28;97894.53;;;15.57;62.38
9969;BME280;5025;48.890;9.278;2023-03-24T11:44:48;97922.53;;;15.63;62.42
9969;BME280;5025;48.890;9.278;2023-03-24T11:47:32;97901.03;;;15.61;62.46
9969;BME280;5025;48.890;9.278;2023-03-24T11:55:19;97892.22;;;15.35;60.54
9969;BME280;5025;48.890;9.278;2023-03-24T11:58:03;97908.41;;;15.16;61.05
9969;BME280;5025;48.890;9.278;2023-03-24T12:00:37;97892.13;;;15.05;61.72
9969;BME280;5025;48.890;9.278;2023-03-24T12:03:37;97904.38;;;15.03;63.63
9969;BME280;5025;48.890;9.278;2023-03-24T12:06:34;97914.19;;;14.99;65.07
9969;BME280;5025;48.890;9.278;2023-03-24T12:11:43;97909.13;;;14.77;68.08
9969;BME280;5025;48.890;9.278;2023-03-24T12:14:23;97921.94;;;14.66;67.46
9969;BME280;5025;48.890;9.278;2023-03-24T12:16:58;97934.41;;;14.51;67.28
9969;BME280;5025;48.890;9.278;2023-03-24T12:19:36;97906.16;;;14.52;66.30
9969;BME280;5025;48.890;9.278;2023-03-24T12:39:30;97916.44;;;14.76;64.71
9969;BME280;5025;48.890;9.278;2023-03-24T12:42:12;97909.91;;;14.82;63.42
9969;BME280;5025;48.890;9.278;2023-03-24T12:45:02;97916.41;;;14.86;62.53
9969;BME280;5025;48.890;9.278;2023-03-24T12:48:02;97913.97;;;14.85;61.78
9969;BME280;5025;48.890;9.278;2023-03-24T12:53:20;97920.22;;;14.85;62.24
9969;BME280;5025;48.890;9.278;2023-03-24T12:55:52;97923.50;;;14.82;61.71
9969;BME280;5025;48.890;9.278;2023-03-24T12:58:34;97911.56;;;14.73;60.61
9969;BME280;5025;48.890;9.278;2023-03-24T13:03:40;97890.88;;;14.82;59.76
9969;BME280;5025;48.890;9.278;2023-03-24T13:06:33;97891.16;;;14.81;60.24
9969;BME280;5025;48.890;9.278;2023-03-24T13:09:18;97892.47;;;14.88;60.10
9969;BME280;5025;48.890;9.278;2023-03-24T13:14:24;97887.09;;;14.73;60.21
9969;BME280;5025;48.890;9.278;2023-03-24T13:16:55;97891.50;;;14.69;61.07
9969;BME280;5025;48.890;9.278;2023-03-24T13:19:25;97900.47;;;14.64;60.49
9969;BME280;5025;48.890;9.278;2023-03-24T13:21:52;97919.53;;;14.44;62.49
9969;BME280;5025;48.890;9.278;2023-03-24T13:24:18;97928.28;;;13.94;64.07
9969;BME280;5025;48.890;9.278;2023-03-24T13:29:24;97929.78;;;13.23;66.48
9969;BME280;5025;48.890;9.278;2023-03-24T13:34:29;97936.31;;;12.64;68.71
9969;BME280;5025;48.890;9.278;2023-03-24T13:37:15;97940.28;;;12.46;69.93
9969;BME280;5025;48.890;9.278;2023-03-24T13:39:44;97956.50;;;12.41;70.50
9969;BME280;5025;48.890;9.278;2023-03-24T13:42:44;97951.25;;;12.24;72.05
9969;BME280;5025;48.890;9.278;2023-03-24T13:45:44;97945.25;;;12.22;72.60
9969;BME280;5025;48.890;9.278;2023-03-24T13:50:33;97951.84;;;11.99;74.41
9969;BME280;5025;48.890;9.278;2023-03-24T13:53:05;97952.72;;;12.05;75.14
9969;BME280;5025;48.890;9.278;2023-03-24T13:55:37;97949.50;;;12.08;75.46
9969;BME280;5025;48.890;9.278;2023-03-24T13:58:07;97949.75;;;12.06;75.32
9969;BME280;5025;48.890;9.278;2023-03-24T14:01:04;97958.13;;;12.05;75.88
9969;BME280;5025;48.890;9.278;2023-03-24T14:03:35;97964.78;;;11.92;76.10
9969;BME280;5025;48.890;9.278;2023-03-24T14:06:03;97957.13;;;11.83;76.50
9969;BME280;5025;48.890;9.278;2023-03-24T14:22:43;97981.53;;;11.34;80.26
9969;BME280;5025;48.890;9.278;2023-03-24T14:24:44;97986.69;;;11.13;81.32
9969;BME280;5025;48.890;9.278;2023-03-24T14:27:28;97981.16;;;11.03;83.23
9969;BME280;5025;48.890;9.278;2023-03-24T14:30:00;97984.47;;;10.88;84.78
9969;BME280;5025;48.890;9.278;2023-03-24T14:32:26;97983.78;;;10.76;85.79
9969;BME280;5025;48.890;9.278;2023-03-24T14:34:54;97973.97;;;10.70;87.65
9969;BME280;5025;48.890;9.278;2023-03-24T14:37:21;97972.28;;;10.64;87.85
9969;BME280;5025;48.890;9.278;2023-03-24T14:39:47;97959.81;;;10.63;88.66
9969;BME280;5025;48.890;9.278;2023-03-24T14:44:57;97970.81;;;10.56;89.93
9969;BME280;5025;48.890;9.278;2023-03-24T14:47:26;97988.66;;;10.57;91.28
9969;BME280;5025;48.890;9.278;2023-03-24T14:49:55;97974.25;;;10.51;92.47
9969;BME280;5025;48.890;9.278;2023-03-24T14:55:11;97973.28;;;10.40;92.77
9969;BME280;5025;48.890;9.278;2023-03-24T14:57:42;97964.06;;;10.36;93.66
9969;BME280;5025;48.890;9.278;2023-03-24T15:02:43;97973.22;;;10.35;94.93
9969;BME280;5025;48.890;9.278;2023-03-24T15:08:20;97956.09;;;10.47;94.98
9969;BME280;5025;48.890;9.278;2023-03-24T15:11:02;97963.47;;;10.51;94.88
9969;BME280;5025;48.890;9.278;2023-03-24T15:13:44;97968.13;;;10.56;94.45
9969;BME280;5025;48.890;9.278;2023-03-24T15:23:54;97959.28;;;10.83;92.39
9969;BME280;5025;48.890;9.278;2023-03-24T15:26:21;97944.00;;;10.93;92.17
9969;BME280;5025;48.890;9.278;2023-03-24T15:28:53;97943.75;;;10.95;92.00
9969;BME280;5025;48.890;9.278;2023-03-24T15:31:18;97933.59;;;11.02;91.78
9969;BME280;5025;48.890;9.278;2023-03-24T15:33:46;97939.03;;;11.07;91.83
9969;BME280;5025;48.890;9.278;2023-03-24T15:36:14;97929.69;;;11.15;91.52
9969;BME280;5025;48.890;9.278;2023-03-24T15:38:45;97916.25;;;11.20;91.10
9969;BME280;5025;48.890;9.278;2023-03-24T15:41:12;97921.94;;;11.24;90.78
9969;BME280;5025;48.890;9.278;2023-03-24T15:43:44;97921.22;;;11.34;90.60
9969;BME280;5025;48.890;9.278;2023-03-24T15:46:30;97928.38;;;11.45;90.29
9969;BME280;5025;48.890;9.278;2023-03-24T15:48:58;97930.34;;;11.55;89.66
9969;BME280;5025;48.890;9.278;2023-03-24T15:51:46;97931.53;;;11.64;89.27
9969;BME280;5025;48.890;9.278;2023-03-24T15:54:22;97925.63;;;11.72;89.17
9969;BME280;5025;48.890;9.278;2023-03-24T15:57:10;97925.19;;;11.80;88.82